sensor_id;sensor_type;location;lat;lon;timestamp;temperature;humidity
67974;DHT22;54756;51.140;6.952;2022-07-01T00:00:03;13.90;99.90
67974;DHT22;54756;51.140;6.952;2022-07-01T00:02:04;13.90;99.90
67974;DHT22;54756;51.140;6.952;2022-07-01T00:04:05;13.90;99.90
67974;DHT22;54756;51.140;6.952;2022-07-01T00:06:06;13.80;99.90
67974;DHT22;54756;51.140;6.952;2022-07-01T00:08:06;13.80;99.90
67974;DHT22;54756;51.140;6.952;2022-07-01T00:10:07;13.80;99.90
67974;DHT22;54756;51.140;6.952;2022-07-01T00:12:08;13.70;99.90
67974;DHT22;54756;51.140;6.952;2022-07-01T00:14:09;13.70;99.90
67974;DHT22;54756;51.140;6.952;2022-07-01T00:16:09;13.70;99.90
67974;DHT22;54756;51.140;6.952;2022-07-01T00:18:10;13.60;99.90
67974;DHT22;54756;51.140;6.952;2022-07-01T00:20:11;13.70;99.90
67974;DHT22;54756;51.140;6.952;2022-07-01T00:22:11;13.60;99.90
67974;DHT22;54756;51.140;6.952;2022-07-01T00:24:12;13.60;99.90
67974;DHT22;54756;51.140;6.952;2022-07-01T00:26:13;13.60;99.90
67974;DHT22;54756;51.140;6.952;2022-07-01T00:28:13;13.60;99.90
67974;DHT22;54756;51.140;6.952;2022-07-01T00:30:14;13.60;99.90
67974;DHT22;54756;51.140;6.952;2022-07-01T00:32:15;13.50;99.90
67974;DHT22;54756;51.140;6.952;2022-07-01T00:34:15;13.50;99.90
67974;DHT22;54756;51.140;6.952;2022-07-01T00:36:16;13.50;99.90
67974;DHT22;54756;51.140;6.952;2022-07-01T00:38:17;13.50;99.90
67974;DHT22;54756;51.140;6.952;2022-07-01T00:40:17;13.50;99.90
67974;DHT22;54756;51.140;6.952;2022-07-01T00:42:18;13.50;99.90
67974;DHT22;54756;51.140;6.952;2022-07-01T00:44:19;13.50;99.90
67974;DHT22;54756;51.140;6.952;2022-07-01T00:46:19;13.50;99.90
67974;DHT22;54756;51.140;6.952;2022-07-01T00:48:21;13.50;99.90
67974;DHT22;54756;51.140;6.952;2022-07-01T00:50:23;13.60;99.90
67974;DHT22;54756;51.140;6.952;2022-07-01T00:52:24;13.60;99.90
67974;DHT22;54756;51.140;6.952;2022-07-01T00:54:25;13.60;99.90
67974;DHT22;54756;51.140;6.952;2022-07-01T00:56:26;13.60;99.90
67974;DHT22;54756;51.140;6.952;2022-07-01T00:58:28;13.60;99.90
67974;DHT22;54756;51.140;6.952;2022-07-01T01:00:29;13.60;99.90
67974;DHT22;54756;51.140;6.952;2022-07-01T01:02:30;13.60;99.90
67974;DHT22;54756;51.140;6.952;2022-07-01T01:04:31;13.60;99.90
67974;DHT22;54756;51.140;6.952;2022-07-01T01:06:33;13.60;99.90
67974;DHT22;54756;51.140;6.952;2022-07-01T01:08:34;13.60;99.90
67974;DHT22;54756;51.140;6.952;2022-07-01T01:10:36;13.60;99.90
67974;DHT22;54756;51.140;6.952;2022-07-01T01:12:37;13.60;99.90
67974;DHT22;54756;51.140;6.952;2022-07-01T01:14:48;13.60;99.90
67974;DHT22;54756;51.140;6.952;2022-07-01T01:16:49;13.60;99.90
67974;DHT22;54756;51.140;6.952;2022-07-01T01:18:50;13.60;99.90
67974;DHT22;54756;51.140;6.952;2022-07-01T01:20:52;13.60;99.90
67974;DHT22;54756;51.140;6.952;2022-07-01T01:22:53;13.60;99.90
67974;DHT22;54756;51.140;6.952;2022-07-01T01:24:53;13.60;99.90
67974;DHT22;54756;51.140;6.952;2022-07-01T01:26:54;13.60;99.90
67974;DHT22;54756;51.140;6.952;2022-07-01T01:28:55;13.60;99.90
67974;DHT22;54756;51.140;6.952;2022-07-01T01:30:55;13.50;99.90
67974;DHT22;54756;51.140;6.952;2022-07-01T01:32:56;13.60;99.90
67974;DHT22;54756;51.140;6.952;2022-07-01T01:34:57;13.60;99.90
67974;DHT22;54756;51.140;6.952;2022-07-01T01:36:57;13.60;99.90
67974;DHT22;54756;51.140;6.952;2022-07-01T01:38:58;13.60;99.90
67974;DHT22;54756;51.140;6.952;2022-07-01T01:41:05;13.60;99.90
67974;DHT22;54756;51.140;6.952;2022-07-01T01:43:06;13.60;99.90
67974;DHT22;54756;51.140;6.952;2022-07-01T01:45:07;13.60;99.90
67974;DHT22;54756;51.140;6.952;2022-07-01T01:47:07;13.60;99.90
67974;DHT22;54756;51.140;6.952;2022-07-01T01:49:08;13.70;99.90
67974;DHT22;54756;51.140;6.952;2022-07-01T01:51:09;13.70;99.90
67974;DHT22;54756;51.140;6.952;2022-07-01T01:53:09;13.70;99.90
67974;DHT22;54756;51.140;6.952;2022-07-01T01:55:10;13.70;99.90
67974;DHT22;54756;51.140;6.952;2022-07-01T01:57:11;13.70;99.90
67974;DHT22;54756;51.140;6.952;2022-07-01T01:59:11;13.70;99.90
67974;DHT22;54756;51.140;6.952;2022-07-01T02:01:13;13.70;99.90
67974;DHT22;54756;51.140;6.952;2022-07-01T02:03:14;13.70;99.90
67974;DHT22;54756;51.140;6.952;2022-07-01T02:05:16;13.70;99.90
67974;DHT22;54756;51.140;6.952;2022-07-01T02:07:16;13.70;99.90
67974;DHT22;54756;51.140;6.952;2022-07-01T02:09:17;13.70;99.90
67974;DHT22;54756;51.140;6.952;2022-07-01T02:11:18;13.70;99.90
67974;DHT22;54756;51.140;6.952;2022-07-01T02:13:18;13.70;99.90
67974;DHT22;54756;51.140;6.952;2022-07-01T02:15:19;13.60;99.90
67974;DHT22;54756;51.140;6.952;2022-07-01T02:17:20;13.60;99.90
67974;DHT22;54756;51.140;6.952;2022-07-01T02:19:20;13.60;99.90
67974;DHT22;54756;51.140;6.952;2022-07-01T02:21:21;13.60;99.90
67974;DHT22;54756;51.140;6.952;2022-07-01T02:23:22;13.50;99.90
67974;DHT22;54756;51.140;6.952;2022-07-01T02:25:22;13.50;99.90
67974;DHT22;54756;51.140;6.952;2022-07-01T02:27:23;13.50;99.90
67974;DHT22;54756;51.140;6.952;2022-07-01T02:29:23;13.50;99.90
67974;DHT22;54756;51.140;6.952;2022-07-01T02:31:24;13.60;99.90
67974;DHT22;54756;51.140;6.952;2022-07-01T02:33:25;13.50;99.90
67974;DHT22;54756;51.140;6.952;2022-07-01T02:35:25;13.60;99.90
67974;DHT22;54756;51.140;6.952;2022-07-01T02:37:27;13.60;99.90
67974;DHT22;54756;51.140;6.952;2022-07-01T02:39:27;13.60;99.90
67974;DHT22;54756;51.140;6.952;2022-07-01T02:41:28;13.60;99.90
67974;DHT22;54756;51.140;6.952;2022-07-01T02:43:28;13.60;99.90
67974;DHT22;54756;51.140;6.952;2022-07-01T02:45:29;13.70;99.90
67974;DHT22;54756;51.140;6.952;2022-07-01T02:47:34;13.70;99.90
67974;DHT22;54756;51.140;6.952;2022-07-01T02:49:35;13.80;99.90
67974;DHT22;54756;51.140;6.952;2022-07-01T02:51:36;13.70;99.90
67974;DHT22;54756;51.140;6.952;2022-07-01T02:53:36;13.80;99.90
67974;DHT22;54756;51.140;6.952;2022-07-01T02:55:37;13.80;99.90
67974;DHT22;54756;51.140;6.952;2022-07-01T02:57:38;13.90;99.90
67974;DHT22;54756;51.140;6.952;2022-07-01T02:59:39;13.90;99.90
67974;DHT22;54756;51.140;6.952;2022-07-01T03:01:40;13.90;99.90
67974;DHT22;54756;51.140;6.952;2022-07-01T03:03:40;13.90;99.90
67974;DHT22;54756;51.140;6.952;2022-07-01T03:05:41;14.00;99.90
67974;DHT22;54756;51.140;6.952;2022-07-01T03:07:42;14.00;99.90
67974;DHT22;54756;51.140;6.952;2022-07-01T03:09:43;14.00;99.90
67974;DHT22;54756;51.140;6.952;2022-07-01T03:11:43;14.00;99.90
67974;DHT22;54756;51.140;6.952;2022-07-01T03:13:44;14.00;99.90
67974;DHT22;54756;51.140;6.952;2022-07-01T03:15:45;14.00;99.90
67974;DHT22;54756;51.140;6.952;2022-07-01T03:17:46;14.00;99.90
67974;DHT22;54756;51.140;6.952;2022-07-01T03:19:48;14.00;99.90
67974;DHT22;54756;51.140;6.952;2022-07-01T03:21:49;14.10;99.90
67974;DHT22;54756;51.140;6.952;2022-07-01T03:23:49;14.10;99.90
67974;DHT22;54756;51.140;6.952;2022-07-01T03:25:50;14.10;99.90
67974;DHT22;54756;51.140;6.952;2022-07-01T03:27:50;14.10;99.90
67974;DHT22;54756;51.140;6.952;2022-07-01T03:29:51;14.10;99.90
67974;DHT22;54756;51.140;6.952;2022-07-01T03:31:52;14.10;99.90
67974;DHT22;54756;51.140;6.952;2022-07-01T03:33:53;14.10;99.90
67974;DHT22;54756;51.140;6.952;2022-07-01T03:35:53;14.10;99.90
67974;DHT22;54756;51.140;6.952;2022-07-01T03:37:55;14.20;99.90
67974;DHT22;54756;51.140;6.952;2022-07-01T03:39:56;14.20;99.90
67974;DHT22;54756;51.140;6.952;2022-07-01T03:41:56;14.20;99.90
67974;DHT22;54756;51.140;6.952;2022-07-01T03:43:57;14.20;99.90
67974;DHT22;54756;51.140;6.952;2022-07-01T03:45:58;14.20;99.90
67974;DHT22;54756;51.140;6.952;2022-07-01T03:47:58;14.20;99.90
67974;DHT22;54756;51.140;6.952;2022-07-01T03:49:59;14.20;99.90
67974;DHT22;54756;51.140;6.952;2022-07-01T03:52:00;14.30;99.90
67974;DHT22;54756;51.140;6.952;2022-07-01T03:54:01;14.20;99.90
67974;DHT22;54756;51.140;6.952;2022-07-01T03:56:20;14.20;99.90
67974;DHT22;54756;51.140;6.952;2022-07-01T03:58:21;14.20;99.90
67974;DHT22;54756;51.140;6.952;2022-07-01T04:00:22;14.20;99.90
67974;DHT22;54756;51.140;6.952;2022-07-01T04:02:23;14.20;99.90
67974;DHT22;54756;51.140;6.952;2022-07-01T04:04:25;14.20;99.90
67974;DHT22;54756;51.140;6.952;2022-07-01T04:06:25;14.30;99.90
67974;DHT22;54756;51.140;6.952;2022-07-01T04:08:26;14.30;99.90
67974;DHT22;54756;51.140;6.952;2022-07-01T04:10:32;14.30;99.90
67974;DHT22;54756;51.140;6.952;2022-07-01T04:12:33;14.30;99.90
67974;DHT22;54756;51.140;6.952;2022-07-01T04:14:34;14.30;99.90
67974;DHT22;54756;51.140;6.952;2022-07-01T04:16:35;14.30;99.90
67974;DHT22;54756;51.140;6.952;2022-07-01T04:18:36;14.20;99.90
67974;DHT22;54756;51.140;6.952;2022-07-01T04:20:37;14.20;99.90
67974;DHT22;54756;51.140;6.952;2022-07-01T04:22:37;14.20;99.90
67974;DHT22;54756;51.140;6.952;2022-07-01T04:24:38;14.20;99.90
67974;DHT22;54756;51.140;6.952;2022-07-01T04:26:39;14.20;99.90
67974;DHT22;54756;51.140;6.952;2022-07-01T04:28:39;14.20;99.90
67974;DHT22;54756;51.140;6.952;2022-07-01T04:30:40;14.20;99.90
67974;DHT22;54756;51.140;6.952;2022-07-01T04:32:40;14.20;99.90
67974;DHT22;54756;51.140;6.952;2022-07-01T04:34:42;14.30;99.90
67974;DHT22;54756;51.140;6.952;2022-07-01T04:36:42;14.30;99.90
67974;DHT22;54756;51.140;6.952;2022-07-01T04:38:43;14.30;99.90
67974;DHT22;54756;51.140;6.952;2022-07-01T04:40:44;14.30;99.90
67974;DHT22;54756;51.140;6.952;2022-07-01T04:43:05;14.40;99.90
67974;DHT22;54756;51.140;6.952;2022-07-01T04:45:06;14.40;99.90
67974;DHT22;54756;51.140;6.952;2022-07-01T04:47:07;14.40;99.90
67974;DHT22;54756;51.140;6.952;2022-07-01T04:49:08;14.40;99.90
67974;DHT22;54756;51.140;6.952;2022-07-01T04:51:09;14.40;99.90
67974;DHT22;54756;51.140;6.952;2022-07-01T04:53:09;14.50;99.90
67974;DHT22;54756;51.140;6.952;2022-07-01T04:55:10;14.50;99.90
67974;DHT22;54756;51.140;6.952;2022-07-01T04:57:10;14.50;99.90
67974;DHT22;54756;51.140;6.952;2022-07-01T04:59:12;14.60;99.90
67974;DHT22;54756;51.140;6.952;2022-07-01T05:01:13;14.60;99.90
67974;DHT22;54756;51.140;6.952;2022-07-01T05:03:14;14.60;99.90
67974;DHT22;54756;51.140;6.952;2022-07-01T05:05:15;14.60;99.90
67974;DHT22;54756;51.140;6.952;2022-07-01T05:07:15;14.60;99.90
67974;DHT22;54756;51.140;6.952;2022-07-01T05:09:28;14.60;99.90
67974;DHT22;54756;51.140;6.952;2022-07-01T05:11:28;14.60;99.90
67974;DHT22;54756;51.140;6.952;2022-07-01T05:13:29;14.60;99.90
67974;DHT22;54756;51.140;6.952;2022-07-01T05:15:30;14.50;99.90
67974;DHT22;54756;51.140;6.952;2022-07-01T05:17:30;14.50;99.90
67974;DHT22;54756;51.140;6.952;2022-07-01T05:19:50;14.50;99.90
67974;DHT22;54756;51.140;6.952;2022-07-01T05:22:08;14.60;99.90
67974;DHT22;54756;51.140;6.952;2022-07-01T05:24:10;14.60;99.90
67974;DHT22;54756;51.140;6.952;2022-07-01T05:26:11;14.60;99.90
67974;DHT22;54756;51.140;6.952;2022-07-01T05:28:17;14.60;99.90
67974;DHT22;54756;51.140;6.952;2022-07-01T05:30:18;14.70;99.90
67974;DHT22;54756;51.140;6.952;2022-07-01T05:32:18;14.80;99.90
67974;DHT22;54756;51.140;6.952;2022-07-01T05:34:19;14.90;99.90
67974;DHT22;54756;51.140;6.952;2022-07-01T05:36:20;14.90;99.90
67974;DHT22;54756;51.140;6.952;2022-07-01T05:38:21;15.00;99.90
67974;DHT22;54756;51.140;6.952;2022-07-01T05:40:21;15.00;99.90
67974;DHT22;54756;51.140;6.952;2022-07-01T05:42:22;15.10;99.90
67974;DHT22;54756;51.140;6.952;2022-07-01T05:44:22;15.20;99.90
67974;DHT22;54756;51.140;6.952;2022-07-01T05:46:23;15.30;99.90
67974;DHT22;54756;51.140;6.952;2022-07-01T05:48:24;15.40;99.90
67974;DHT22;54756;51.140;6.952;2022-07-01T05:50:25;15.50;99.90
67974;DHT22;54756;51.140;6.952;2022-07-01T05:52:25;15.60;99.90
67974;DHT22;54756;51.140;6.952;2022-07-01T05:54:26;15.60;99.90
67974;DHT22;54756;51.140;6.952;2022-07-01T05:56:26;15.70;99.90
67974;DHT22;54756;51.140;6.952;2022-07-01T05:58:27;15.70;99.90
67974;DHT22;54756;51.140;6.952;2022-07-01T06:00:28;15.80;99.90
67974;DHT22;54756;51.140;6.952;2022-07-01T06:02:29;15.90;99.90
67974;DHT22;54756;51.140;6.952;2022-07-01T06:04:30;15.90;99.90
67974;DHT22;54756;51.140;6.952;2022-07-01T06:06:30;15.80;99.90
67974;DHT22;54756;51.140;6.952;2022-07-01T06:08:32;15.90;99.90
67974;DHT22;54756;51.140;6.952;2022-07-01T06:10:34;15.90;99.90
67974;DHT22;54756;51.140;6.952;2022-07-01T06:12:34;15.90;99.90
67974;DHT22;54756;51.140;6.952;2022-07-01T06:14:35;16.00;99.90
67974;DHT22;54756;51.140;6.952;2022-07-01T06:16:37;16.00;99.90
67974;DHT22;54756;51.140;6.952;2022-07-01T06:18:38;16.00;99.90
67974;DHT22;54756;51.140;6.952;2022-07-01T06:20:39;16.10;99.90
67974;DHT22;54756;51.140;6.952;2022-07-01T06:22:39;16.10;99.90
67974;DHT22;54756;51.140;6.952;2022-07-01T06:24:40;16.20;99.90
67974;DHT22;54756;51.140;6.952;2022-07-01T06:26:40;16.30;99.90
67974;DHT22;54756;51.140;6.952;2022-07-01T06:28:41;16.40;99.90
67974;DHT22;54756;51.140;6.952;2022-07-01T06:30:42;16.40;99.90
67974;DHT22;54756;51.140;6.952;2022-07-01T06:32:43;16.50;99.90
67974;DHT22;54756;51.140;6.952;2022-07-01T06:34:44;16.50;99.90
67974;DHT22;54756;51.140;6.952;2022-07-01T06:36:45;16.60;99.90
67974;DHT22;54756;51.140;6.952;2022-07-01T06:38:45;16.70;99.90
67974;DHT22;54756;51.140;6.952;2022-07-01T06:40:46;16.70;99.90
67974;DHT22;54756;51.140;6.952;2022-07-01T06:43:06;16.70;99.90
67974;DHT22;54756;51.140;6.952;2022-07-01T06:45:07;17.00;99.90
67974;DHT22;54756;51.140;6.952;2022-07-01T06:47:08;17.20;99.90
67974;DHT22;54756;51.140;6.952;2022-07-01T06:49:09;17.40;99.90
67974;DHT22;54756;51.140;6.952;2022-07-01T06:51:10;17.50;99.90
67974;DHT22;54756;51.140;6.952;2022-07-01T06:53:11;17.50;99.90
67974;DHT22;54756;51.140;6.952;2022-07-01T06:55:12;17.50;99.90
67974;DHT22;54756;51.140;6.952;2022-07-01T06:57:12;17.60;99.90
67974;DHT22;54756;51.140;6.952;2022-07-01T06:59:13;17.50;99.90
67974;DHT22;54756;51.140;6.952;2022-07-01T07:01:15;17.50;99.90
67974;DHT22;54756;51.140;6.952;2022-07-01T07:03:16;17.60;99.90
67974;DHT22;54756;51.140;6.952;2022-07-01T07:05:16;17.60;99.90
67974;DHT22;54756;51.140;6.952;2022-07-01T07:07:17;17.60;99.90
67974;DHT22;54756;51.140;6.952;2022-07-01T07:09:17;17.50;99.90
67974;DHT22;54756;51.140;6.952;2022-07-01T07:11:18;17.40;99.90
67974;DHT22;54756;51.140;6.952;2022-07-01T07:13:20;17.40;99.90
67974;DHT22;54756;51.140;6.952;2022-07-01T07:15:20;17.30;99.90
67974;DHT22;54756;51.140;6.952;2022-07-01T07:17:21;17.30;99.90
67974;DHT22;54756;51.140;6.952;2022-07-01T07:19:22;17.40;99.90
67974;DHT22;54756;51.140;6.952;2022-07-01T07:21:22;17.40;99.90
67974;DHT22;54756;51.140;6.952;2022-07-01T07:23:23;17.50;99.90
67974;DHT22;54756;51.140;6.952;2022-07-01T07:25:23;17.70;99.90
67974;DHT22;54756;51.140;6.952;2022-07-01T07:27:24;17.80;99.90
67974;DHT22;54756;51.140;6.952;2022-07-01T07:29:25;17.90;99.90
67974;DHT22;54756;51.140;6.952;2022-07-01T07:31:25;18.00;99.90
67974;DHT22;54756;51.140;6.952;2022-07-01T07:33:26;18.00;99.90
67974;DHT22;54756;51.140;6.952;2022-07-01T07:35:27;18.10;99.90
67974;DHT22;54756;51.140;6.952;2022-07-01T07:37:27;18.20;99.90
67974;DHT22;54756;51.140;6.952;2022-07-01T07:39:28;18.30;99.90
67974;DHT22;54756;51.140;6.952;2022-07-01T07:41:29;18.30;99.90
67974;DHT22;54756;51.140;6.952;2022-07-01T07:43:31;18.30;99.90
67974;DHT22;54756;51.140;6.952;2022-07-01T07:45:31;18.30;99.90
67974;DHT22;54756;51.140;6.952;2022-07-01T07:47:33;18.20;99.90
67974;DHT22;54756;51.140;6.952;2022-07-01T07:49:34;18.10;99.90
67974;DHT22;54756;51.140;6.952;2022-07-01T07:51:35;18.10;99.90
67974;DHT22;54756;51.140;6.952;2022-07-01T07:53:35;18.00;99.90
67974;DHT22;54756;51.140;6.952;2022-07-01T07:55:36;18.00;99.90
67974;DHT22;54756;51.140;6.952;2022-07-01T07:57:37;18.10;99.90
67974;DHT22;54756;51.140;6.952;2022-07-01T07:59:38;18.10;99.90
67974;DHT22;54756;51.140;6.952;2022-07-01T08:01:38;18.00;99.90
67974;DHT22;54756;51.140;6.952;2022-07-01T08:03:39;17.90;99.90
67974;DHT22;54756;51.140;6.952;2022-07-01T08:05:40;17.90;99.90
67974;DHT22;54756;51.140;6.952;2022-07-01T08:07:42;18.00;99.90
67974;DHT22;54756;51.140;6.952;2022-07-01T08:09:43;18.20;99.90
67974;DHT22;54756;51.140;6.952;2022-07-01T08:11:46;18.30;99.90
67974;DHT22;54756;51.140;6.952;2022-07-01T08:13:47;18.50;99.90
67974;DHT22;54756;51.140;6.952;2022-07-01T08:15:47;18.60;99.90
67974;DHT22;54756;51.140;6.952;2022-07-01T08:17:48;18.60;99.90
67974;DHT22;54756;51.140;6.952;2022-07-01T08:19:49;18.70;99.90
67974;DHT22;54756;51.140;6.952;2022-07-01T08:21:51;18.80;99.90
67974;DHT22;54756;51.140;6.952;2022-07-01T08:23:53;18.90;99.90
67974;DHT22;54756;51.140;6.952;2022-07-01T08:25:53;19.10;99.90
67974;DHT22;54756;51.140;6.952;2022-07-01T08:27:54;19.40;99.90
67974;DHT22;54756;51.140;6.952;2022-07-01T08:29:56;19.80;99.90
67974;DHT22;54756;51.140;6.952;2022-07-01T08:31:57;20.10;99.90
67974;DHT22;54756;51.140;6.952;2022-07-01T08:33:58;20.20;99.90
67974;DHT22;54756;51.140;6.952;2022-07-01T08:35:58;20.30;99.90
67974;DHT22;54756;51.140;6.952;2022-07-01T08:37:59;20.30;99.90
67974;DHT22;54756;51.140;6.952;2022-07-01T08:40:00;20.30;99.90
67974;DHT22;54756;51.140;6.952;2022-07-01T08:42:00;20.30;99.90
67974;DHT22;54756;51.140;6.952;2022-07-01T08:44:01;20.20;99.90
67974;DHT22;54756;51.140;6.952;2022-07-01T08:46:02;20.10;99.90
67974;DHT22;54756;51.140;6.952;2022-07-01T08:48:03;20.00;99.90
67974;DHT22;54756;51.140;6.952;2022-07-01T08:50:04;19.80;99.90
67974;DHT22;54756;51.140;6.952;2022-07-01T08:52:05;19.60;99.90
67974;DHT22;54756;51.140;6.952;2022-07-01T08:54:06;19.50;99.90
67974;DHT22;54756;51.140;6.952;2022-07-01T08:56:06;19.30;99.90
67974;DHT22;54756;51.140;6.952;2022-07-01T08:58:27;19.10;99.90
67974;DHT22;54756;51.140;6.952;2022-07-01T09:00:31;19.10;99.90
67974;DHT22;54756;51.140;6.952;2022-07-01T09:05:04;19.00;99.90
67974;DHT22;54756;51.140;6.952;2022-07-01T09:07:08;19.00;99.90
67974;DHT22;54756;51.140;6.952;2022-07-01T09:11:24;19.30;99.90
67974;DHT22;54756;51.140;6.952;2022-07-01T09:13:25;19.50;99.90
67974;DHT22;54756;51.140;6.952;2022-07-01T09:15:31;19.80;99.90
67974;DHT22;54756;51.140;6.952;2022-07-01T09:17:38;20.10;99.90
67974;DHT22;54756;51.140;6.952;2022-07-01T09:19:39;20.30;99.90
67974;DHT22;54756;51.140;6.952;2022-07-01T09:21:41;20.50;99.90
67974;DHT22;54756;51.140;6.952;2022-07-01T09:23:42;20.70;99.90
67974;DHT22;54756;51.140;6.952;2022-07-01T09:25:48;20.70;99.90
67974;DHT22;54756;51.140;6.952;2022-07-01T09:28:23;20.70;99.90
67974;DHT22;54756;51.140;6.952;2022-07-01T09:30:27;20.70;99.90
67974;DHT22;54756;51.140;6.952;2022-07-01T09:32:27;20.80;99.90
67974;DHT22;54756;51.140;6.952;2022-07-01T09:34:39;20.80;99.90
67974;DHT22;54756;51.140;6.952;2022-07-01T09:36:40;21.10;99.90
67974;DHT22;54756;51.140;6.952;2022-07-01T09:38:47;21.30;99.90
67974;DHT22;54756;51.140;6.952;2022-07-01T09:42:52;21.80;99.90
67974;DHT22;54756;51.140;6.952;2022-07-01T09:45:00;22.00;99.90
67974;DHT22;54756;51.140;6.952;2022-07-01T09:47:07;22.10;99.90
67974;DHT22;54756;51.140;6.952;2022-07-01T09:49:08;22.20;99.90
67974;DHT22;54756;51.140;6.952;2022-07-01T09:51:09;22.30;99.90
67974;DHT22;54756;51.140;6.952;2022-07-01T09:53:10;22.30;99.90
67974;DHT22;54756;51.140;6.952;2022-07-01T09:55:11;22.20;99.90
67974;DHT22;54756;51.140;6.952;2022-07-01T09:57:13;22.10;99.90
67974;DHT22;54756;51.140;6.952;2022-07-01T09:59:14;22.10;99.90
67974;DHT22;54756;51.140;6.952;2022-07-01T10:01:15;22.10;99.90
67974;DHT22;54756;51.140;6.952;2022-07-01T10:03:18;22.00;99.90
67974;DHT22;54756;51.140;6.952;2022-07-01T10:05:20;21.80;99.90
67974;DHT22;54756;51.140;6.952;2022-07-01T10:07:34;21.70;99.90
67974;DHT22;54756;51.140;6.952;2022-07-01T10:09:51;21.60;99.90
67974;DHT22;54756;51.140;6.952;2022-07-01T10:14:29;21.50;99.90
67974;DHT22;54756;51.140;6.952;2022-07-01T10:16:32;21.40;99.90
67974;DHT22;54756;51.140;6.952;2022-07-01T10:18:33;21.50;99.90
67974;DHT22;54756;51.140;6.952;2022-07-01T10:20:33;21.70;99.90
67974;DHT22;54756;51.140;6.952;2022-07-01T10:22:36;22.10;99.90
67974;DHT22;54756;51.140;6.952;2022-07-01T10:24:37;22.50;99.90
67974;DHT22;54756;51.140;6.952;2022-07-01T10:26:37;22.70;99.90
67974;DHT22;54756;51.140;6.952;2022-07-01T10:31:03;23.10;99.90
67974;DHT22;54756;51.140;6.952;2022-07-01T10:33:04;23.30;99.90
67974;DHT22;54756;51.140;6.952;2022-07-01T10:35:06;23.50;99.90
67974;DHT22;54756;51.140;6.952;2022-07-01T10:37:09;23.60;99.90
67974;DHT22;54756;51.140;6.952;2022-07-01T10:39:13;23.30;99.90
67974;DHT22;54756;51.140;6.952;2022-07-01T10:41:24;24.40;99.90
67974;DHT22;54756;51.140;6.952;2022-07-01T10:43:35;25.20;99.90
67974;DHT22;54756;51.140;6.952;2022-07-01T10:45:43;26.10;99.90
67974;DHT22;54756;51.140;6.952;2022-07-01T10:47:44;26.10;99.90
67974;DHT22;54756;51.140;6.952;2022-07-01T10:49:53;25.80;99.90
67974;DHT22;54756;51.140;6.952;2022-07-01T10:51:56;25.30;99.90
67974;DHT22;54756;51.140;6.952;2022-07-01T10:53:58;25.20;99.90
67974;DHT22;54756;51.140;6.952;2022-07-01T10:55:58;25.00;99.90
67974;DHT22;54756;51.140;6.952;2022-07-01T10:58:00;24.40;99.90
67974;DHT22;54756;51.140;6.952;2022-07-01T11:02:13;23.70;99.90
67974;DHT22;54756;51.140;6.952;2022-07-01T11:04:14;23.50;99.90
67974;DHT22;54756;51.140;6.952;2022-07-01T11:06:15;23.50;99.90
67974;DHT22;54756;51.140;6.952;2022-07-01T11:08:18;23.50;99.90
67974;DHT22;54756;51.140;6.952;2022-07-01T11:10:19;23.30;99.90
67974;DHT22;54756;51.140;6.952;2022-07-01T11:12:21;23.20;99.90
67974;DHT22;54756;51.140;6.952;2022-07-01T11:14:25;23.20;99.90
67974;DHT22;54756;51.140;6.952;2022-07-01T11:16:28;23.10;99.90
67974;DHT22;54756;51.140;6.952;2022-07-01T11:18:30;23.20;99.90
67974;DHT22;54756;51.140;6.952;2022-07-01T11:20:32;23.20;99.90
67974;DHT22;54756;51.140;6.952;2022-07-01T11:22:34;23.30;99.90
67974;DHT22;54756;51.140;6.952;2022-07-01T11:24:34;23.80;99.90
67974;DHT22;54756;51.140;6.952;2022-07-01T11:26:35;24.40;99.90
67974;DHT22;54756;51.140;6.952;2022-07-01T11:28:41;24.60;99.90
67974;DHT22;54756;51.140;6.952;2022-07-01T11:30:42;24.60;99.90
67974;DHT22;54756;51.140;6.952;2022-07-01T11:32:45;24.50;99.90
67974;DHT22;54756;51.140;6.952;2022-07-01T11:34:46;24.80;99.90
67974;DHT22;54756;51.140;6.952;2022-07-01T11:36:47;25.10;99.90
67974;DHT22;54756;51.140;6.952;2022-07-01T11:39:08;25.30;99.90
67974;DHT22;54756;51.140;6.952;2022-07-01T11:41:25;26.00;99.90
67974;DHT22;54756;51.140;6.952;2022-07-01T11:43:31;26.50;99.90
67974;DHT22;54756;51.140;6.952;2022-07-01T11:45:33;26.60;99.90
67974;DHT22;54756;51.140;6.952;2022-07-01T11:47:34;26.80;99.90
67974;DHT22;54756;51.140;6.952;2022-07-01T11:49:44;26.90;99.90
67974;DHT22;54756;51.140;6.952;2022-07-01T11:51:54;27.00;99.90
67974;DHT22;54756;51.140;6.952;2022-07-01T11:53:55;27.30;99.90
67974;DHT22;54756;51.140;6.952;2022-07-01T11:55:58;27.30;99.90
67974;DHT22;54756;51.140;6.952;2022-07-01T11:57:58;27.20;99.90
67974;DHT22;54756;51.140;6.952;2022-07-01T12:00:11;27.70;99.90
67974;DHT22;54756;51.140;6.952;2022-07-01T12:02:14;28.00;99.90
67974;DHT22;54756;51.140;6.952;2022-07-01T12:04:15;27.90;99.90
67974;DHT22;54756;51.140;6.952;2022-07-01T12:06:17;28.90;99.90
67974;DHT22;54756;51.140;6.952;2022-07-01T12:08:19;30.40;98.40
67974;DHT22;54756;51.140;6.952;2022-07-01T12:10:24;31.40;97.60
67974;DHT22;54756;51.140;6.952;2022-07-01T12:12:25;32.70;95.80
67974;DHT22;54756;51.140;6.952;2022-07-01T12:14:32;32.50;95.50
67974;DHT22;54756;51.140;6.952;2022-07-01T12:16:40;32.80;94.40
67974;DHT22;54756;51.140;6.952;2022-07-01T12:18:58;31.80;92.50
67974;DHT22;54756;51.140;6.952;2022-07-01T12:21:00;31.90;93.30
67974;DHT22;54756;51.140;6.952;2022-07-01T12:23:24;31.70;92.90
67974;DHT22;54756;51.140;6.952;2022-07-01T12:25:28;31.00;93.20
67974;DHT22;54756;51.140;6.952;2022-07-01T12:27:29;31.20;93.40
67974;DHT22;54756;51.140;6.952;2022-07-01T12:31:33;33.40;92.30
67974;DHT22;54756;51.140;6.952;2022-07-01T12:33:44;35.00;87.60
67974;DHT22;54756;51.140;6.952;2022-07-01T12:35:48;36.20;77.90
67974;DHT22;54756;51.140;6.952;2022-07-01T12:37:50;35.60;73.80
67974;DHT22;54756;51.140;6.952;2022-07-01T12:41:57;35.00;71.70
67974;DHT22;54756;51.140;6.952;2022-07-01T12:43:59;33.60;72.10
67974;DHT22;54756;51.140;6.952;2022-07-01T12:46:00;32.20;72.80
67974;DHT22;54756;51.140;6.952;2022-07-01T12:48:01;31.30;78.50
67974;DHT22;54756;51.140;6.952;2022-07-01T12:52:26;35.60;72.20
67974;DHT22;54756;51.140;6.952;2022-07-01T12:54:34;36.80;62.50
67974;DHT22;54756;51.140;6.952;2022-07-01T12:56:35;36.70;61.20
67974;DHT22;54756;51.140;6.952;2022-07-01T12:58:36;34.80;62.10
67974;DHT22;54756;51.140;6.952;2022-07-01T13:00:46;33.30;63.70
67974;DHT22;54756;51.140;6.952;2022-07-01T13:02:50;33.50;65.20
67974;DHT22;54756;51.140;6.952;2022-07-01T13:04:51;32.40;66.10
67974;DHT22;54756;51.140;6.952;2022-07-01T13:06:52;31.30;68.20
67974;DHT22;54756;51.140;6.952;2022-07-01T13:08:52;30.90;70.80
67974;DHT22;54756;51.140;6.952;2022-07-01T13:10:55;30.10;72.60